Terminal Aerodrome Forecast
Issued by NWS

Home | Current Version | Previous Version | Text Only | Print | Product List | Glossary On
Versions: 1 2 3 4 5 6 7 8 9 10 11 12 13 14 15 16 17 18 19 20 21 22
022
FTUS41 KPBZ 271735
TAFDUJ
TAF
KDUJ 271735Z 2718/2818 00000KT P6SM BKN035
     FM272200 00000KT P6SM SCT080
     FM280900 12004KT 3SM BR BKN015
     FM281500 14006KT P6SM BKN040=

USA.gov is the U.S. government's official web portal to all federal, state and local government web resources and services.